Meteo Giornale » Osservazioni meteo Stati Uniti (USA) » Vacaville Nut Tree
ore: 14:53 - Osservazioni Meteo Vacaville Nut Tree
Lat. 38° 22' N Lon. 121° 57' W Alt. 34 metri s.l.m.
24 °C
Sereno
Temp. 24 Ore
15 °C
31 °C
Sud/Sud-Ovest
22.2 Km/h
Dew point 12 °C
Umidità 47 %
Visibilità 10 Km
Il sole sorge alle ore 06:36
Il sole tramonta alle ore 19:39
| Data e Ora | Cielo e Fenomeni | T °C | DP °C | Um. % | Pres. hPa | Vis. km | Vento km/h | |
|---|---|---|---|---|---|---|---|---|
| Oggi h: 14:53 | Sereno | 24 | 12 | 47 | 1011 | 10 | S/SO 22.2 | |
| Oggi h: 13:53 | Sereno | 23 | 11 | 46 | 1011 | 10 | S/SO 22.2 | |
| Oggi h: 12:53 | Sereno | 23 | 12 | 49 | 1012 | 10 | SO 22.2 | |
| Oggi h: 11:53 | Sereno | 21 | 11 | 52 | 1012 | 10 | S/SO 22.2 | |
| Oggi h: 10:53 | Sereno | 18 | 11 | 63 | 1012 | 10 | S/SO 20.3 | |
| Oggi h: 09:53 | Sereno | 16 | 11 | 72 | 1012 | 10 | SO 20.3 | |
| Oggi h: 08:53 | Poco Nuvoloso | 15 | 11 | 76 | 1011 | 10 | S/SO 20.3 | |
| Oggi h: 07:53 | Poco Nuvoloso | 15 | 11 | 76 | 1011 | 10 | S/SO 18.5 | |
| Oggi h: 06:53 | Sereno | 15 | 11 | 76 | 1010 | 10 | SO 20.3 | |
| Oggi h: 05:53 | Sereno | 15 | 11 | 76 | 1010 | 10 | SO 11.1 | |
| Oggi h: 04:53 | Sereno | 16 | 11 | 72 | 1009 | 10 | SO 13 | |
| Oggi h: 03:53 | Sereno | 16 | 11 | 72 | 1009 | 10 | SO 13 | |
| Oggi h: 02:53 | Sereno | 16 | 11 | 72 | 1009 | 10 | SO 13 | |
| Oggi h: 01:53 | Sereno | 17 | 11 | 67 | 1009 | 10 | SO 13 | |
| Oggi h: 00:53 | Sereno | 17 | 11 | 67 | 1009 | 10 | SO 13 | |
| Ieri h: 23:53 | Sereno | 18 | 11 | 63 | 1009 | 10 | SO 7.4 | |
| Ieri h: 22:53 | Sereno | 19 | 11 | 59 | 1009 | 10 | N 5.5 | |
| Ieri h: 21:53 | Sereno | 22 | 11 | 49 | 1009 | 10 | S/SO 9.3 | |
| Ieri h: 20:53 | Sereno | 23 | 11 | 46 | 1009 | 10 | S 7.4 | |
| Ieri h: 19:53 | Sereno | 25 | 11 | 41 | 1009 | 10 | S/SO 7.4 | |
| Ieri h: 18:53 | Sereno | 27 | 12 | 39 | 1009 | 10 | S/SO 9.3 | |
| Ieri h: 17:53 | Sereno | 30 | 11 | 30 | 1009 | 10 | S/SO 9.3 | |
| Ieri h: 16:53 | Sereno | 31 | 9 | 25 | 1010 | 10 | S/SO 13 | |
| Ieri h: 15:53 | Sereno | 31 | 12 | 31 | 1010 | 10 | S 13 | |



